createdAt,value
2022-09-02T00:02:09.895Z,101538.06
2022-09-02T00:04:37.978Z,101537.41
2022-09-02T00:07:06.068Z,101530.28
2022-09-02T00:09:34.055Z,101528.81
2022-09-02T00:12:03.697Z,101528.06
2022-09-02T00:14:34.110Z,101528.19
2022-09-02T00:17:02.266Z,101521.16
2022-09-02T00:19:30.675Z,101527.59
2022-09-02T00:21:59.101Z,101514.16
2022-09-02T00:24:27.114Z,101521.53
2022-09-02T00:26:56.640Z,101520.66
2022-09-02T00:29:26.517Z,101516.03
2022-09-02T00:31:54.606Z,101515.88
2022-09-02T00:34:22.749Z,101506.75
2022-09-02T00:36:50.846Z,101506.66
2022-09-02T00:39:18.886Z,101503.09
2022-09-02T00:41:46.982Z,101494.97
2022-09-02T00:44:16.134Z,101487.94
2022-09-02T00:46:45.789Z,101486.97
2022-09-02T00:49:15.565Z,101482.91
2022-09-02T00:51:48.194Z,101495.19
2022-09-02T00:54:18.063Z,101484.50
2022-09-02T00:56:46.391Z,101482.75
2022-09-02T00:59:16.451Z,101473.50
2022-09-02T01:01:45.982Z,101480.31
2022-09-02T01:04:14.080Z,101482.16
2022-09-02T01:06:42.087Z,101472.34
2022-09-02T01:09:12.945Z,101474.03
2022-09-02T01:11:42.016Z,101471.53
2022-09-02T01:14:10.266Z,101468.09
2022-09-02T01:16:42.170Z,101472.16
2022-09-02T01:19:17.619Z,101473.13
2022-09-02T01:21:48.988Z,101470.69
2022-09-02T01:24:17.494Z,101469.09
2022-09-02T01:26:45.544Z,101470.31
2022-09-02T01:29:13.519Z,101470.56
2022-09-02T01:31:41.615Z,101466.38
2022-09-02T01:34:10.022Z,101459.22
2022-09-02T01:36:39.203Z,101461.19
2022-09-02T01:39:08.735Z,101460.31
2022-09-02T01:41:36.707Z,101460.47
2022-09-02T01:44:05.637Z,101452.47
2022-09-02T01:46:34.424Z,101459.72
2022-09-02T01:49:03.000Z,101452.09
2022-09-02T01:51:31.424Z,101447.78
2022-09-02T01:53:59.401Z,101447.28
2022-09-02T01:56:28.751Z,101444.94
2022-09-02T01:58:57.439Z,101443.59
2022-09-02T02:01:25.563Z,101435.84
2022-09-02T02:03:53.542Z,101435.34
2022-09-02T02:06:21.589Z,101435.03
2022-09-02T02:08:49.565Z,101432.78
2022-09-02T02:11:20.473Z,101431.44
2022-09-02T02:13:49.869Z,101423.69
2022-09-02T02:16:18.097Z,101424.16
2022-09-02T02:18:46.168Z,101419.22
2022-09-02T02:21:14.352Z,101407.06
2022-09-02T02:23:42.361Z,101415.50
2022-09-02T02:28:43.757Z,101405.88
2022-09-02T02:31:13.222Z,101415.44
2022-09-02T02:33:41.379Z,101405.19
2022-09-02T02:36:09.793Z,101404.75
2022-09-02T02:38:38.412Z,101409.63
2022-09-02T02:41:07.132Z,101404.69
2022-09-02T02:43:35.155Z,101405.91
2022-09-02T02:46:03.194Z,101401.06
2022-09-02T02:48:32.849Z,101399.72
2022-09-02T02:51:00.861Z,101396.47
2022-09-02T02:53:29.747Z,101397.69
2022-09-02T02:55:57.893Z,101395.44
2022-09-02T02:58:26.031Z,101394.59
2022-09-02T03:00:54.055Z,101387.44
2022-09-02T03:03:22.626Z,101392.97
2022-09-02T03:05:53.119Z,101397.63
2022-09-02T03:08:21.832Z,101394.16
2022-09-02T03:10:51.920Z,101390.47
2022-09-02T03:13:20.426Z,101399.56
2022-09-02T03:15:48.501Z,101390.72
2022-09-02T03:18:16.498Z,101398.69
2022-09-02T03:20:45.057Z,101398.69
2022-09-02T03:23:14.849Z,101394.91
2022-09-02T03:25:43.316Z,101395.66
2022-09-02T03:28:11.336Z,101395.44
2022-09-02T03:30:40.109Z,101393.50
2022-09-02T03:33:08.135Z,101393.25
2022-09-02T03:35:39.145Z,101392.03
2022-09-02T03:38:07.141Z,101397.44
2022-09-02T03:40:36.681Z,101391.28
2022-09-02T03:43:05.577Z,101395.00
2022-09-02T03:45:33.798Z,101394.34
2022-09-02T03:48:01.858Z,101394.66
2022-09-02T03:50:31.433Z,101389.84
2022-09-02T03:52:59.879Z,101382.44
2022-09-02T03:55:28.057Z,101385.13
2022-09-02T03:57:57.469Z,101382.75
2022-09-02T04:00:25.894Z,101390.84
2022-09-02T04:02:55.373Z,101387.41
2022-09-02T04:05:23.625Z,101385.34
2022-09-02T04:07:52.688Z,101398.75
2022-09-02T04:10:21.978Z,101387.94
2022-09-02T04:12:50.113Z,101393.44
2022-09-02T04:15:20.193Z,101389.25
2022-09-02T04:17:48.172Z,101394.97
2022-09-02T04:20:16.616Z,101388.91
2022-09-02T04:22:44.642Z,101391.06
2022-09-02T04:25:12.704Z,101387.75
2022-09-02T04:27:40.712Z,101382.69
2022-09-02T04:30:09.563Z,101381.94
2022-09-02T04:32:40.848Z,101380.06
2022-09-02T04:35:09.280Z,101375.44
2022-09-02T04:37:37.320Z,101371.78
2022-09-02T04:40:05.977Z,101373.38
2022-09-02T04:42:34.485Z,101376.97
2022-09-02T04:45:02.725Z,101371.44
2022-09-02T04:47:30.893Z,101372.41
2022-09-02T04:50:00.290Z,101378.66
2022-09-02T04:52:28.392Z,101371.56
2022-09-02T04:54:56.488Z,101369.06
2022-09-02T04:57:24.503Z,101374.69
2022-09-02T04:59:52.534Z,101374.91
2022-09-02T05:02:20.789Z,101373.31
2022-09-02T05:04:49.450Z,101373.72
2022-09-02T05:07:18.923Z,101370.38
2022-09-02T05:09:46.914Z,101372.66
2022-09-02T05:12:18.678Z,101365.03
2022-09-02T05:14:49.118Z,101360.69
2022-09-02T05:17:17.147Z,101369.75
2022-09-02T05:19:45.115Z,101367.91
2022-09-02T05:22:13.138Z,101364.25
2022-09-02T05:24:43.368Z,101374.81
2022-09-02T05:27:11.477Z,101372.97
2022-09-02T05:29:40.638Z,101358.88
2022-09-02T05:32:11.086Z,101365.88
2022-09-02T05:34:48.241Z,101368.59
2022-09-02T05:37:25.467Z,101370.50
2022-09-02T05:39:57.979Z,101370.72
2022-09-02T05:42:33.694Z,101363.84
2022-09-02T05:45:02.295Z,101371.19
2022-09-02T05:47:36.719Z,101335.69
2022-09-02T05:50:08.061Z,101367.59
2022-09-02T05:52:36.296Z,101330.41
2022-09-02T05:55:09.729Z,101305.34
2022-09-02T05:57:38.073Z,101369.88
2022-09-02T06:00:07.715Z,101319.16
2022-09-02T06:02:35.800Z,101376.31
2022-09-02T06:05:04.221Z,101383.25
2022-09-02T06:07:35.838Z,101372.75
2022-09-02T06:10:05.959Z,101376.75
2022-09-02T06:12:34.161Z,101375.34
2022-09-02T06:15:03.040Z,101365.91
2022-09-02T06:17:31.125Z,101374.56
2022-09-02T06:19:59.132Z,101381.16
2022-09-02T06:22:27.815Z,101372.50
2022-09-02T06:24:56.097Z,101374.75
2022-09-02T06:27:25.765Z,101364.97
2022-09-02T06:29:53.802Z,101367.13
2022-09-02T06:32:21.883Z,101365.81
2022-09-02T06:34:49.943Z,101368.78
2022-09-02T06:37:18.022Z,101328.47
2022-09-02T06:39:46.959Z,101356.31
2022-09-02T06:42:15.213Z,101352.06
2022-09-02T06:44:45.067Z,101361.09
2022-09-02T06:47:13.113Z,101358.56
2022-09-02T06:49:41.628Z,101359.69
2022-09-02T06:52:10.043Z,101358.13
2022-09-02T06:54:38.092Z,101355.56
2022-09-02T06:57:06.307Z,101346.13
2022-09-02T06:59:34.493Z,101345.75
2022-09-02T07:02:04.322Z,101360.28
2022-09-02T07:04:52.159Z,101360.78
2022-09-02T07:07:22.726Z,101347.00
2022-09-02T07:09:50.917Z,101349.00
2022-09-02T07:12:19.693Z,101352.81
2022-09-02T07:14:47.716Z,101350.38
2022-09-02T07:17:18.072Z,101347.66
2022-09-02T07:19:46.211Z,101347.03
2022-09-02T07:22:14.187Z,101344.59
2022-09-02T07:24:47.034Z,101342.97
2022-09-02T07:27:15.272Z,101339.38
2022-09-02T07:29:44.220Z,101342.09
2022-09-02T07:32:12.259Z,101347.47
2022-09-02T07:34:41.662Z,101332.28
2022-09-02T07:37:11.098Z,101338.69
2022-09-02T07:39:39.426Z,101336.06
2022-09-02T07:42:08.273Z,101343.53
2022-09-02T07:44:36.786Z,101350.16
2022-09-02T07:47:05.172Z,101344.19
2022-09-02T07:50:15.803Z,101344.81
2022-09-02T07:52:22.657Z,101342.84
2022-09-02T07:54:52.996Z,101340.16
2022-09-02T07:57:21.146Z,101337.28
2022-09-02T07:59:50.535Z,101334.44
2022-09-02T08:02:19.335Z,101343.19
2022-09-02T08:04:47.406Z,101338.50
2022-09-02T08:07:16.908Z,101341.22
2022-09-02T08:09:46.322Z,101331.22
2022-09-02T08:12:15.894Z,101341.69
2022-09-02T08:14:45.851Z,101328.44
2022-09-02T08:17:14.367Z,101336.03
2022-09-02T08:19:44.613Z,101336.50
2022-09-02T08:22:12.619Z,101334.53
2022-09-02T08:24:40.653Z,101323.38
2022-09-02T08:27:10.033Z,101326.84
2022-09-02T08:29:38.069Z,101321.28
2022-09-02T08:32:06.902Z,101324.56
2022-09-02T08:34:35.175Z,101328.63
2022-09-02T08:37:03.202Z,101323.34
2022-09-02T08:39:31.323Z,101328.38
2022-09-02T08:42:04.311Z,101318.00
2022-09-02T08:44:34.545Z,101321.75
2022-09-02T08:47:02.847Z,101316.78
2022-09-02T08:49:31.789Z,101316.06
2022-09-02T08:52:01.037Z,101308.34
2022-09-02T08:54:32.555Z,101304.81
2022-09-02T08:57:00.610Z,101300.13
2022-09-02T08:59:29.491Z,101307.03
2022-09-02T09:02:03.374Z,101298.31
2022-09-02T09:04:44.311Z,101297.63
2022-09-02T09:07:18.795Z,101290.19
2022-09-02T09:09:56.703Z,101302.09
2022-09-02T09:12:28.709Z,101303.25
2022-09-02T09:14:59.421Z,101291.81
2022-09-02T09:17:30.447Z,101294.38
2022-09-02T09:20:00.687Z,101292.66
2022-09-02T09:22:31.441Z,101303.97
2022-09-02T09:24:59.504Z,101302.25
2022-09-02T09:27:28.347Z,101308.63
2022-09-02T09:29:56.385Z,101305.03
2022-09-02T09:32:27.313Z,101300.47
2022-09-02T09:35:03.292Z,101306.94
2022-09-02T09:37:36.580Z,101299.66
2022-09-02T09:40:23.540Z,101301.78
2022-09-02T09:42:53.168Z,101296.22
2022-09-02T09:45:22.803Z,101292.63
2022-09-02T09:48:18.307Z,101285.03
2022-09-02T09:50:48.373Z,101286.59
2022-09-02T09:53:18.407Z,101288.00
2022-09-02T09:55:54.704Z,101287.97
2022-09-02T09:58:23.269Z,101277.03
2022-09-02T10:01:00.650Z,101273.03
2022-09-02T10:03:32.924Z,101273.59
2022-09-02T10:06:19.072Z,101263.84
2022-09-02T10:08:52.197Z,101271.28
2022-09-02T10:11:22.783Z,101266.22
2022-09-02T10:13:50.769Z,101257.31
2022-09-02T10:16:46.160Z,101257.34
2022-09-02T10:19:19.363Z,101249.09
2022-09-02T10:22:00.203Z,101256.91
2022-09-02T10:24:38.528Z,101249.16
2022-09-02T10:27:09.149Z,101254.44
2022-09-02T10:29:43.123Z,101258.19
2022-09-02T10:32:23.021Z,101249.16
2022-09-02T10:34:54.902Z,101252.56
2022-09-02T10:37:25.290Z,101244.63
2022-09-02T10:40:10.780Z,101247.16
2022-09-02T10:42:47.414Z,101250.22
2022-09-02T10:45:18.228Z,101248.13
2022-09-02T10:47:48.563Z,101249.56
2022-09-02T10:50:21.810Z,101250.34
2022-09-02T10:53:07.404Z,101252.25
2022-09-02T10:55:41.808Z,101250.59
2022-09-02T10:58:11.680Z,101248.28
2022-09-02T11:00:40.648Z,101245.47
2022-09-02T11:03:15.161Z,101238.47
2022-09-02T11:05:45.008Z,101234.44
2022-09-02T11:08:15.947Z,101236.78
2022-09-02T11:10:47.271Z,101234.44
2022-09-02T11:13:19.320Z,101226.63
2022-09-02T11:15:48.714Z,101221.44
2022-09-02T11:18:19.989Z,101226.53
2022-09-02T11:20:50.827Z,101221.25
2022-09-02T11:23:23.250Z,101208.34
2022-09-02T11:25:55.168Z,101208.41
2022-09-02T11:28:31.943Z,101207.84
2022-09-02T11:31:03.847Z,101201.97
2022-09-02T11:33:46.865Z,101200.22
2022-09-02T11:36:15.027Z,101189.84
2022-09-02T11:38:51.266Z,101194.44
2022-09-02T11:41:35.933Z,101191.22
2022-09-02T11:44:14.660Z,101171.34
2022-09-02T11:46:55.255Z,101177.84
2022-09-02T11:49:38.336Z,101167.63
2022-09-02T11:52:12.012Z,101169.78
2022-09-02T11:54:42.443Z,101165.16
2022-09-02T11:57:12.793Z,101165.78
2022-09-02T12:00:03.718Z,101163.06
2022-09-02T12:02:37.627Z,101156.78
2022-09-02T12:05:43.084Z,101165.78
2022-09-02T12:08:13.477Z,101153.97
2022-09-02T12:11:04.939Z,101149.47
2022-09-02T12:13:34.567Z,101140.97
2022-09-02T12:16:38.852Z,101148.91
2022-09-02T12:19:29.578Z,101134.22
2022-09-02T12:22:38.888Z,101140.81
2022-09-02T12:25:43.403Z,101130.59
2022-09-02T12:28:19.041Z,101133.72
2022-09-02T12:31:15.675Z,101136.50
2022-09-02T12:33:44.814Z,101134.69
2022-09-02T12:36:52.135Z,101134.84
2022-09-02T12:39:48.103Z,101118.50
2022-09-02T12:42:20.805Z,101113.31
2022-09-02T12:44:52.412Z,101112.66
2022-09-02T12:47:29.391Z,101106.50
2022-09-02T12:50:03.663Z,101104.94
2022-09-02T12:52:46.679Z,101111.41
2022-09-02T12:55:19.599Z,101105.94
2022-09-02T12:57:49.801Z,101104.47
2022-09-02T13:00:28.170Z,101101.69
2022-09-02T13:03:02.750Z,101101.47
2022-09-02T13:05:33.418Z,101096.75
2022-09-02T13:08:34.762Z,101092.44
2022-09-02T13:11:37.199Z,101081.75
2022-09-02T13:14:27.533Z,101087.75
2022-09-02T13:17:25.739Z,101084.47
2022-09-02T13:20:30.861Z,101077.97
2022-09-02T13:23:42.758Z,101075.34
2022-09-02T13:26:48.455Z,101072.19
2022-09-02T13:29:37.395Z,101066.47
2022-09-02T13:32:14.284Z,101057.69
2022-09-02T13:34:42.694Z,101065.44
2022-09-02T13:37:28.788Z,101060.72
2022-09-02T13:39:57.026Z,101058.09
2022-09-02T13:42:26.070Z,101055.81
2022-09-02T13:45:12.490Z,101051.19
2022-09-02T13:47:44.707Z,101050.25
2022-09-02T13:50:13.531Z,101034.69
2022-09-02T13:55:29.914Z,101030.31
2022-09-02T13:57:59.305Z,101029.69
2022-09-02T14:00:29.689Z,101025.38
2022-09-02T14:03:01.153Z,101033.75
2022-09-02T14:05:29.158Z,101030.31
2022-09-02T14:08:00.100Z,101025.44
2022-09-02T14:10:29.047Z,101021.56
2022-09-02T14:12:57.153Z,101016.91
2022-09-02T14:15:27.017Z,101023.31
2022-09-02T14:18:18.559Z,101012.94
2022-09-02T14:20:57.920Z,101017.97
2022-09-02T14:23:26.101Z,101018.53
2022-09-02T14:25:55.817Z,101007.75
2022-09-02T14:28:24.702Z,101014.91
2022-09-02T14:30:57.161Z,101000.66
2022-09-02T14:33:29.287Z,101010.47
2022-09-02T14:36:01.193Z,101000.19
2022-09-02T14:38:30.344Z,100994.34
2022-09-02T14:41:02.537Z,100987.25
2022-09-02T14:43:31.223Z,100990.25
2022-09-02T14:46:09.427Z,100988.75
2022-09-02T14:48:39.810Z,100980.09
2022-09-02T14:51:08.486Z,100980.09
2022-09-02T14:53:37.586Z,100980.84
2022-09-02T14:56:06.483Z,100982.75
2022-09-02T14:58:34.500Z,100981.09
2022-09-02T15:01:02.769Z,100984.69
2022-09-02T15:03:31.499Z,100981.00
2022-09-02T15:06:00.791Z,100974.91
2022-09-02T15:08:28.771Z,100979.38
2022-09-02T15:10:58.888Z,100970.81
2022-09-02T15:13:28.944Z,100961.09
2022-09-02T15:15:59.461Z,100970.81
2022-09-02T15:18:27.593Z,100969.47
2022-09-02T15:20:55.504Z,100962.09
2022-09-02T15:23:24.854Z,100951.28
2022-09-02T15:25:54.238Z,100954.09
2022-09-02T15:28:22.285Z,100949.56
2022-09-02T15:30:50.324Z,100940.00
2022-09-02T15:33:18.720Z,100950.34
2022-09-02T15:35:47.637Z,100958.09
2022-09-02T15:38:15.755Z,100970.78
2022-09-02T15:40:45.329Z,100965.53
2022-09-02T15:43:13.318Z,100970.59
2022-09-02T15:45:42.076Z,100972.78
2022-09-02T15:48:10.496Z,100974.88
2022-09-02T15:50:38.522Z,100988.66
2022-09-02T15:53:06.608Z,100997.00
2022-09-02T15:55:34.649Z,100994.81
2022-09-02T15:58:04.056Z,100985.53
2022-09-02T16:00:34.828Z,100978.50
2022-09-02T16:03:03.456Z,100978.53
2022-09-02T16:05:32.739Z,100985.84
2022-09-02T16:08:01.742Z,101000.97
2022-09-02T16:10:30.300Z,100989.97
2022-09-02T16:13:00.802Z,100984.56
2022-09-02T16:15:30.834Z,100973.00
2022-09-02T16:18:02.815Z,100982.56
2022-09-02T16:20:31.486Z,100970.94
2022-09-02T16:22:59.842Z,100972.16
2022-09-02T16:25:28.321Z,100969.66
2022-09-02T16:27:56.954Z,100961.16
2022-09-02T16:30:25.799Z,100959.19
2022-09-02T16:32:55.874Z,100954.78
2022-09-02T16:35:23.786Z,100962.97
2022-09-02T16:37:53.105Z,100955.53
2022-09-02T16:40:22.180Z,100960.72
2022-09-02T16:42:50.264Z,100968.56
2022-09-02T16:45:18.356Z,100960.53
2022-09-02T16:47:47.848Z,100969.09
2022-09-02T16:50:17.374Z,100959.63
2022-09-02T16:52:45.474Z,100958.13
2022-09-02T16:55:17.856Z,100966.84
2022-09-02T16:57:45.765Z,100948.13
2022-09-02T17:00:15.379Z,100957.25
2022-09-02T17:02:44.034Z,100945.84
2022-09-02T17:05:14.401Z,100949.84
2022-09-02T17:07:44.360Z,100943.88
2022-09-02T17:10:12.420Z,100952.31
2022-09-02T17:12:43.063Z,100941.59
2022-09-02T17:15:11.799Z,100938.97
2022-09-02T17:17:40.136Z,100934.75
2022-09-02T17:20:08.952Z,100934.47
2022-09-02T17:22:36.899Z,100927.78
2022-09-02T17:25:07.248Z,100930.97
2022-09-02T17:27:36.350Z,100936.84
2022-09-02T17:30:04.862Z,100935.81
2022-09-02T17:32:32.811Z,100931.16
2022-09-02T17:35:02.297Z,100934.47
2022-09-02T17:37:30.417Z,100927.22
2022-09-02T17:39:58.510Z,100922.50
2022-09-02T17:42:26.868Z,100919.53
2022-09-02T17:44:55.269Z,100909.97
2022-09-02T17:47:23.650Z,100909.56
2022-09-02T17:49:52.348Z,100914.56
2022-09-02T17:52:21.272Z,100902.56
2022-09-02T17:54:50.215Z,100910.28
2022-09-02T17:57:33.914Z,100905.44
2022-09-02T18:00:09.196Z,100909.44
2022-09-02T18:03:20.266Z,100906.16
2022-09-02T18:05:57.476Z,100913.16
2022-09-02T18:08:31.819Z,100915.31
2022-09-02T18:11:04.581Z,100912.88
2022-09-02T18:13:40.853Z,100909.03
2022-09-02T18:16:23.136Z,100908.59
2022-09-02T18:19:04.110Z,100915.75
2022-09-02T18:21:38.738Z,100899.78
2022-09-02T18:24:08.386Z,100909.91
2022-09-02T18:26:45.990Z,100916.31
2022-09-02T18:29:20.966Z,100911.06
2022-09-02T18:31:52.019Z,100919.19
2022-09-02T18:34:30.744Z,100906.78
2022-09-02T18:37:05.817Z,100912.31
2022-09-02T18:39:51.365Z,100902.31
2022-09-02T18:42:25.902Z,100910.75
2022-09-02T18:45:00.973Z,100901.78
2022-09-02T18:47:32.741Z,100902.88
2022-09-02T18:50:02.934Z,100899.06
2022-09-02T18:52:31.062Z,100903.47
2022-09-02T18:55:02.974Z,100910.88
2022-09-02T18:57:33.777Z,100904.47
2022-09-02T19:00:04.015Z,100903.63
2022-09-02T19:02:36.305Z,100902.75
2022-09-02T19:05:07.120Z,100894.75
2022-09-02T19:07:53.942Z,100894.03
2022-09-02T19:10:22.114Z,100895.44
2022-09-02T19:12:50.033Z,100887.47
2022-09-02T19:15:19.469Z,100878.19
2022-09-02T19:17:49.610Z,100881.59
2022-09-02T19:20:17.957Z,100875.88
2022-09-02T19:22:48.024Z,100882.59
2022-09-02T19:25:17.843Z,100888.16
2022-09-02T19:27:45.828Z,100892.16
2022-09-02T19:30:15.283Z,100892.28
2022-09-02T19:32:46.349Z,100890.84
2022-09-02T19:35:16.773Z,100892.56
2022-09-02T19:37:47.026Z,100900.53
2022-09-02T19:40:17.048Z,100894.41
2022-09-02T19:42:44.985Z,100898.97
2022-09-02T19:45:16.402Z,100906.22
2022-09-02T19:50:34.032Z,100915.22
2022-09-02T19:53:01.943Z,100910.66
2022-09-02T19:55:29.867Z,100911.38
2022-09-02T19:57:59.931Z,100925.50
2022-09-02T20:00:27.965Z,100919.81
2022-09-02T20:03:00.129Z,100916.84
2022-09-02T20:05:28.238Z,100910.41
2022-09-02T20:07:56.543Z,100913.25
2022-09-02T20:10:27.661Z,100913.81
2022-09-02T20:12:56.250Z,100911.09
2022-09-02T20:15:24.176Z,100909.28
2022-09-02T20:17:52.147Z,100911.09
2022-09-02T20:20:22.778Z,100912.97
2022-09-02T20:22:51.940Z,100905.13
2022-09-02T20:25:20.170Z,100905.69
2022-09-02T20:27:55.571Z,100900.69
2022-09-02T20:30:29.365Z,100899.84
2022-09-02T20:32:59.114Z,100894.69
2022-09-02T20:35:45.594Z,100897.69
2022-09-02T20:38:24.540Z,100903.53
2022-09-02T20:40:57.927Z,100907.91
2022-09-02T20:43:48.571Z,100905.59
2022-09-02T20:46:31.013Z,100898.75
2022-09-02T20:49:12.150Z,100908.88
2022-09-02T20:51:45.609Z,100905.28
2022-09-02T20:54:19.926Z,100902.59
2022-09-02T20:56:51.592Z,100900.88
2022-09-02T20:59:22.566Z,100905.19
2022-09-02T21:01:50.492Z,100906.00
2022-09-02T21:04:31.230Z,100901.59
2022-09-02T21:07:02.388Z,100903.09
2022-09-02T21:09:36.330Z,100908.06
2022-09-02T21:12:07.496Z,100912.03
2022-09-02T21:14:38.705Z,100900.91
2022-09-02T21:17:08.168Z,100909.19
2022-09-02T21:19:37.700Z,100899.72
2022-09-02T21:22:10.602Z,100906.63
2022-09-02T21:24:40.911Z,100900.59
2022-09-02T21:27:12.239Z,100899.16
2022-09-02T21:29:41.718Z,100891.19
2022-09-02T21:32:11.777Z,100888.75
2022-09-02T21:34:40.625Z,100887.72
2022-09-02T21:37:10.492Z,100888.75
2022-09-02T21:39:39.612Z,100883.59
2022-09-02T21:42:16.013Z,100874.34
2022-09-02T21:44:50.860Z,100876.78
2022-09-02T21:47:21.572Z,100866.69
2022-09-02T21:50:00.051Z,100869.25
2022-09-02T21:52:33.066Z,100870.25
2022-09-02T21:55:04.056Z,100855.25
2022-09-02T21:57:44.955Z,100848.00
2022-09-02T22:00:14.657Z,100856.13
2022-09-02T22:02:52.711Z,100862.53
2022-09-02T22:05:30.632Z,100854.53
2022-09-02T22:08:02.973Z,100865.81
2022-09-02T22:10:33.905Z,100855.00
2022-09-02T22:13:03.250Z,100852.16
2022-09-02T22:15:37.627Z,100840.34
2022-09-02T22:18:11.069Z,100847.34
2022-09-02T22:20:45.090Z,100845.19
2022-09-02T22:23:22.586Z,100847.06
2022-09-02T22:25:51.367Z,100853.31
2022-09-02T22:28:22.018Z,100850.75
2022-09-02T22:30:53.519Z,100846.31
2022-09-02T22:33:24.097Z,100843.63
2022-09-02T22:35:55.385Z,100848.06
2022-09-02T22:38:27.628Z,100848.91
2022-09-02T22:40:57.073Z,100847.06
2022-09-02T22:43:28.150Z,100849.91
2022-09-02T22:46:14.445Z,100851.63
2022-09-02T22:49:02.569Z,100849.91
2022-09-02T22:51:49.597Z,100832.94
2022-09-02T22:54:18.992Z,100835.78
2022-09-02T22:56:50.378Z,100827.69
2022-09-02T22:59:35.752Z,100832.38
2022-09-02T23:02:09.107Z,100836.31
2022-09-02T23:04:48.239Z,100834.63
2022-09-02T23:07:16.325Z,100811.25
2022-09-02T23:09:45.630Z,100827.63
2022-09-02T23:12:23.602Z,100826.06
2022-09-02T23:14:53.811Z,100825.19
2022-09-02T23:17:33.630Z,100825.34
2022-09-02T23:20:09.341Z,100820.06
2022-09-02T23:22:47.050Z,100825.47
2022-09-02T23:25:48.214Z,100823.91
2022-09-02T23:28:17.621Z,100817.78
2022-09-02T23:31:01.221Z,100816.91
2022-09-02T23:33:40.062Z,100813.34
2022-09-02T23:36:15.078Z,100794.38
2022-09-02T23:39:01.750Z,100807.94
2022-09-02T23:41:31.293Z,100808.06
2022-09-02T23:43:59.248Z,100800.09
2022-09-02T23:46:32.968Z,100801.94
2022-09-02T23:49:05.511Z,100808.06
2022-09-02T23:51:35.881Z,100801.81
2022-09-02T23:54:11.705Z,100798.22
2022-09-02T23:56:58.907Z,100799.25
2022-09-02T23:59:43.158Z,100798.22
